Mirror Lake, New Hampshire
Current Conditions -  °F | °C
As of 10:15 AM on Sunday 21 Dec 2014 (Local Time) from KLCI Reporting Station
Broken Clouds Broken Clouds  
Wind Chill: 21°   Ceiling: 6500
Heat Index: 27°   Visibility: 10mi
Dew Point: 21°   Wind: 5mph
Humidity: 80%   Direction: 10°N
Pressure: 30.32"   Gusts: NA
Location:  43.62°N, 71.28°W
Report Text: KLCI 211515Z AUTO 01004KT 10SM FEW028 SCT055 BKN065 M03/M06 A3032 RMK AO1
Loading
Personal Weather Stations






























Interactive Weather Map New forecast layout! Learn more

10-Day Weather Forecast

Advertisements
Track Severe Weather on mobile